AirNav   Air Wisconsin Up To $57,000 Bonus
 
 599 users online  

96IL Gerbick Airport
Lena, Illinois, USA

GOING TO LENA?


FAA INFORMATION EFFECTIVE 26 JANUARY 2023

Location

FAA Identifier: 96IL
Lat/Long: 42-22-30.0500N 089-50-45.4350W
42-22.500833N 089-50.757250W
42.3750139,-89.8459542
(estimated)
Elevation: 930 ft. / 283 m (estimated)
Variation: 01W (1990)
From city: 1 mile W of LENA, IL
Time zone: UTC -6 (UTC -5 during Daylight Saving Time)
Zip code: 61048

Airport Operations

Airport use: Private use. Permission required prior to landing
Activation date: 04/1990
Control tower: no
ARTCC: CHICAGO CENTER
FSS: KANKAKEE FLIGHT SERVICE STATION
Attendance: UNATNDD
Segmented circle: no

Airport Communications

UNICOM: 122.8
WX AWOS-3 at FEP (14 nm SE): 120.525 (815-233-4472)
WX AWOS-3 at EFT (18 nm NE): 118.375 (608-328-8359)

Nearby radio navigation aids

VOR radial/distance  VOR name  Freq  Var
PLLr327/28.4POLO VOR/DME111.2003E
JVLr248/34.6JANESVILLE VOR/DME114.3003E
DBQr088/38.3DUBUQUE VORTAC115.8004E

Airport Services

Runway Information

Runway 18/36

Dimensions: 2400 x 70 ft. / 732 x 21 m
Surface: turf
RUNWAY 18  RUNWAY 36
Traffic pattern: leftleft
Displaced threshold: 200 ft.200 ft.
Obstructions: road, 225 ft. from runway25 ft. pline, 400 ft. from runway

Airport Ownership and Management from official FAA records

Ownership: Privately-owned
Owner: DEAN GERBICK
14564 W. HOWARDSVILLE RD
LENA, IL 61048
Phone 815-369-4279
Manager: DEAN GERBICK
14564 W. HOWARDSVILLE RD
LENA, IL 61048
Phone 815-369-4279

Airport Operational Statistics

Aircraft based on the field: 1
Single engine airplanes: 1
    

Additional Remarks

FOR CD CTC CHICAGO ARTCC AT 630-906-8921.

Instrument Procedures

There are no published instrument procedures at 96IL.

Some nearby airports with instrument procedures:

KFEP - Albertus Airport (14 nm SE)
KEFT - Monroe Municipal Airport (18 nm NE)
KSFY - Tri-Township Airport (23 nm SW)
KPVB - Platteville Municipal Airport (32 nm NW)
KRFD - Chicago/Rockford International Airport (35 nm E)
 
Loc | Ops | Rwys | IFR | FBO | Links
Com | Nav | Svcs | Stats | Notes
Area around 96IL (Gerbick Airport)
 
Road maps at: MapQuest Bing Google
 
Aerial photo
No photo
 
Sectional chart

 
Airport distance calculator
Flying to Gerbick Airport? Find the distance to fly.

From to 96IL

Sunrise and sunset
Times for 30-Jan-2023
 Local
(UTC-6)
 Zulu
(UTC)
Morning civil twilight06:4612:46
Sunrise07:1613:16
Sunset17:0923:09
Evening civil twilight17:3923:39

Current date and time
Zulu (UTC)  30-Jan-2023 09:45:02
Local (UTC-6)  30-Jan-2023 03:45:02
 
METAR
KFEP 
14nm SE 
300935Z AUTO 33011KT 10SM OVC080 M13/M17 A3037 RMK AO2 T11311166
KEFT 
18nm NE 
300935Z AUTO 33007KT 10SM OVC080 M14/M19 A3033 RMK AO2 T11401194
KSFY 
23nm SW 
300943Z AUTO 34005KT 10SM OVC080 M14/M20 A3039 RMK AO2
TAF
KRFD 
35nm E 
300536Z 3006/3106 34010KT P6SM SCT029 BKN060 TEMPO 3006/3009 5SM -SN BKN029 FM302300 31006KT P6SM FEW070
KDBQ 
38nm W 
300520Z 3006/3106 33012KT P6SM OVC080
KJVL 
39nm E 
300756Z 3008/3106 32009KT P6SM SCT060 OVC100 TEMPO 3008/3011 6SM -SN BKN060 FM301300 31008KT P6SM SCT045 BKN100 FM310200 30005KT P6SM SCT200
NOTAMs
Click for the latest NOTAMs
NOTAMs are issued by the DoD/FAA and will open in a separate window not controlled by AirNav.

 

 
 

Would you like to see your business listed on this page?

 If your business provides an interesting product or service to pilots, flight crews, aircraft, or users of the Gerbick Airport, you should consider listing it here.  To start the listing process, click on the button below
 
Add a business
 

Other Pages about Gerbick Airport

Update a link
 
Copyright © AirNav, LLC. All rights reserved. Privacy Policy  Contact